Time;durP1;ratioP1;P1;durP2;ratioP2;P2;SDS_P1;SDS_P2;PMS_P1;PMS_P2;Temp;Humidity;BMP_temperature;BMP_pressure;BME280_temperature;BME280_humidity;BME280_pressure;Samples;Min_cycle;Max_cycle;Signal;HPM_P1;HPM_P2
2023/01/10 00:00:54;;;;;;;3.33;1.50;;;;;;;;;;5073109;28;20457;-56
2023/01/10 00:03:21;;;;;;;2.40;1.60;;;;;;;;;;5072871;28;20454;-53
2023/01/10 00:05:49;;;;;;;3.03;1.67;;;;;;;;;;5073122;28;20449;-51
2023/01/10 00:08:17;;;;;;;1.53;1.30;;;;;;;;;;5073047;28;20447;-55
2023/01/10 00:10:44;;;;;;;1.77;1.67;;;;;;;;;;5072943;28;20502;-56
2023/01/10 00:13:23;;;;;;;3.03;1.83;;;;;;;;;;5072915;28;20455;-53
2023/01/10 00:15:51;;;;;;;1.43;1.30;;;;;;;;;;5073278;28;20792;-56
2023/01/10 00:18:18;;;;;;;1.60;1.50;;;;;;;;;;5073053;28;20530;-54
2023/01/10 00:20:45;;;;;;;2.00;1.80;;;;;;;;;;5072813;28;20487;-55
2023/01/10 00:23:14;;;;;;;1.53;1.40;;;;;;;;;;5072707;28;20486;-56
2023/01/10 00:25:41;;;;;;;2.13;1.50;;;;;;;;;;5072676;28;20935;-53
2023/01/10 00:28:18;;;;;;;1.93;1.83;;;;;;;;;;5072756;28;20494;-56
2023/01/10 00:30:48;;;;;;;1.87;1.50;;;;;;;;;;5072538;28;20472;-55
2023/01/10 00:33:19;;;;;;;1.90;1.80;;;;;;;;;;5073044;28;20451;-54
2023/01/10 00:35:46;;;;;;;2.47;1.70;;;;;;;;;;5072756;28;20463;-54
2023/01/10 00:38:14;;;;;;;2.50;2.00;;;;;;;;;;5072687;28;20447;-51
2023/01/10 00:40:42;;;;;;;2.23;1.83;;;;;;;;;;5072573;28;20545;-51
2023/01/10 00:45:54;;;;;;;2.10;1.83;;;;;;;;;;5072377;28;20463;-51
2023/01/10 00:48:21;;;;;;;2.33;1.90;;;;;;;;;;5072576;28;20475;-51
2023/01/10 00:50:48;;;;;;;1.90;1.80;;;;;;;;;;5072406;28;20474;-54
2023/01/10 00:53:16;;;;;;;2.03;1.90;;;;;;;;;;5072512;28;20443;-56
2023/01/10 00:55:43;;;;;;;3.23;1.73;;;;;;;;;;5074944;28;20531;-55
2023/01/10 00:58:10;;;;;;;1.83;1.73;;;;;;;;;;5076173;28;20977;-54
2023/01/10 01:00:38;;;;;;;2.87;1.70;;;;;;;;;;5076343;28;20463;-51
2023/01/10 01:03:06;;;;;;;2.00;1.80;;;;;;;;;;5076358;28;20850;-51
2023/01/10 01:05:34;;;;;;;1.80;1.70;;;;;;;;;;5076119;28;20447;-49
2023/01/10 01:08:01;;;;;;;1.60;1.50;;;;;;;;;;5076084;28;20444;-52
2023/01/10 01:10:29;;;;;;;1.57;1.43;;;;;;;;;;5076202;28;20772;-49
2023/01/10 01:12:57;;;;;;;2.80;1.90;;;;;;;;;;5076233;28;20477;-51
2023/01/10 01:15:24;;;;;;;4.57;2.40;;;;;;;;;;5076073;28;20543;-48
2023/01/10 01:17:51;;;;;;;2.17;2.07;;;;;;;;;;5076049;28;20934;-49
2023/01/10 01:20:18;;;;;;;2.57;2.20;;;;;;;;;;5075883;28;20541;-53
2023/01/10 01:22:46;;;;;;;4.27;2.30;;;;;;;;;;5075744;28;20858;-51
2023/01/10 01:25:13;;;;;;;2.40;2.20;;;;;;;;;;5075979;28;20542;-51
2023/01/10 01:27:41;;;;;;;2.60;2.40;;;;;;;;;;5075888;28;20505;-51
2023/01/10 01:30:09;;;;;;;2.20;1.93;;;;;;;;;;5075800;28;20540;-52
2023/01/10 01:32:36;;;;;;;3.00;2.13;;;;;;;;;;5075693;28;20585;-51
2023/01/10 01:35:04;;;;;;;2.83;2.23;;;;;;;;;;5075655;28;20472;-55
2023/01/10 01:37:31;;;;;;;3.40;2.20;;;;;;;;;;5075798;28;20453;-52
2023/01/10 01:39:58;;;;;;;3.00;2.47;;;;;;;;;;5075656;28;20496;-52
2023/01/10 01:42:26;;;;;;;3.30;3.00;;;;;;;;;;5075658;28;20447;-53
2023/01/10 01:45:27;;;;;;;2.13;2.03;;;;;;;;;;5075321;28;20474;-52
2023/01/10 01:47:56;;;;;;;2.10;1.90;;;;;;;;;;5075704;28;20443;-55
2023/01/10 01:50:25;;;;;;;2.80;2.50;;;;;;;;;;5075251;28;20935;-50
2023/01/10 01:52:53;;;;;;;2.50;2.30;;;;;;;;;;5075368;28;20479;-53
2023/01/10 01:55:20;;;;;;;3.23;1.97;;;;;;;;;;5075348;28;20535;-51
2023/01/10 01:57:48;;;;;;;2.57;2.27;;;;;;;;;;5075249;28;20453;-50
2023/01/10 02:00:15;;;;;;;3.30;2.20;;;;;;;;;;5075033;28;20444;-51
2023/01/10 02:02:47;;;;;;;2.83;2.43;;;;;;;;;;5075278;28;20543;-53
2023/01/10 02:05:15;;;;;;;2.90;2.07;;;;;;;;;;5075190;28;20543;-51
2023/01/10 02:07:45;;;;;;;2.47;2.27;;;;;;;;;;5073975;28;20444;-51
2023/01/10 02:10:14;;;;;;;3.00;2.23;;;;;;;;;;5074916;28;20538;-50
2023/01/10 02:12:42;;;;;;;1.97;1.83;;;;;;;;;;5074852;28;20676;-52
2023/01/10 02:15:10;;;;;;;3.03;2.43;;;;;;;;;;5075091;28;20814;-55
2023/01/10 02:17:37;;;;;;;2.17;1.97;;;;;;;;;;5074995;28;20448;-54
2023/01/10 02:20:07;;;;;;;3.10;2.50;;;;;;;;;;5074917;28;20645;-52
2023/01/10 02:22:52;;;;;;;3.37;2.60;;;;;;;;;;5074748;28;20454;-55
2023/01/10 02:25:31;;;;;;;2.40;2.20;;;;;;;;;;5074659;28;20458;-53
2023/01/10 02:28:09;;;;;;;2.60;2.50;;;;;;;;;;5074825;28;20535;-52
2023/01/10 02:30:56;;;;;;;2.70;2.50;;;;;;;;;;5074536;28;20947;-53
2023/01/10 02:33:27;;;;;;;2.20;2.00;;;;;;;;;;5074502;28;20477;-53
2023/01/10 02:36:16;;;;;;;2.67;2.47;;;;;;;;;;5074646;28;20544;-53
2023/01/10 02:38:50;;;;;;;2.60;2.40;;;;;;;;;;5074505;28;20878;-56
2023/01/10 02:41:21;;;;;;;2.90;2.70;;;;;;;;;;5074422;28;20553;-51
2023/01/10 02:43:49;;;;;;;2.53;2.33;;;;;;;;;;5074124;28;20547;-50
2023/01/10 02:46:23;;;;;;;4.70;3.00;;;;;;;;;;5074530;28;20543;-49
2023/01/10 02:48:51;;;;;;;2.67;2.00;;;;;;;;;;5074347;28;20538;-52
2023/01/10 02:51:19;;;;;;;2.70;2.47;;;;;;;;;;5074281;28;20510;-54
2023/01/10 02:53:48;;;;;;;2.50;2.30;;;;;;;;;;5074208;28;20448;-52
2023/01/10 02:56:29;;;;;;;2.50;2.30;;;;;;;;;;5073964;28;20447;-53
2023/01/10 02:59:05;;;;;;;2.60;2.40;;;;;;;;;;5074053;28;20451;-51
2023/01/10 03:01:35;;;;;;;3.33;3.03;;;;;;;;;;5073971;28;20443;-51
2023/01/10 03:04:07;;;;;;;3.07;2.87;;;;;;;;;;5074084;28;20444;-54
2023/01/10 03:06:36;;;;;;;2.57;2.37;;;;;;;;;;5074010;28;20456;-54
2023/01/10 03:09:05;;;;;;;2.27;1.90;;;;;;;;;;5074019;28;20448;-49
2023/01/10 03:11:39;;;;;;;2.33;2.13;;;;;;;;;;5073811;28;20483;-48
2023/01/10 03:14:09;;;;;;;2.60;2.40;;;;;;;;;;5073850;28;20462;-53
2023/01/10 03:16:37;;;;;;;4.60;2.40;;;;;;;;;;5073717;28;20803;-53
2023/01/10 03:19:08;;;;;;;3.40;2.30;;;;;;;;;;5073367;28;20455;-52
2023/01/10 03:21:37;;;;;;;3.00;2.40;;;;;;;;;;5073822;28;20440;-50
2023/01/10 03:24:06;;;;;;;3.80;2.10;;;;;;;;;;5073678;28;20542;-51
2023/01/10 03:26:35;;;;;;;2.47;2.30;;;;;;;;;;5073578;28;20454;-52
2023/01/10 03:29:04;;;;;;;3.10;2.13;;;;;;;;;;5073561;28;20939;-48
2023/01/10 03:31:36;;;;;;;2.83;2.53;;;;;;;;;;5073333;28;20558;-55
2023/01/10 03:34:04;;;;;;;2.90;2.10;;;;;;;;;;5073303;28;20448;-55
2023/01/10 03:36:34;;;;;;;3.50;2.53;;;;;;;;;;5073409;28;20448;-53
2023/01/10 03:39:06;;;;;;;2.03;1.93;;;;;;;;;;5073440;28;20469;-55
2023/01/10 03:41:36;;;;;;;2.90;2.17;;;;;;;;;;5073235;28;20981;-51
2023/01/10 03:46:54;;;;;;;2.57;2.37;;;;;;;;;;5073228;28;20435;-55
2023/01/10 03:49:23;;;;;;;5.63;2.83;;;;;;;;;;5073267;28;20447;-55
2023/01/10 03:51:51;;;;;;;4.53;2.53;;;;;;;;;;5073083;28;20479;-53
2023/01/10 03:54:18;;;;;;;4.20;2.80;;;;;;;;;;5073129;28;20443;-52
2023/01/10 03:56:46;;;;;;;3.47;3.07;;;;;;;;;;5072973;28;20539;-52
2023/01/10 03:59:13;;;;;;;4.00;2.70;;;;;;;;;;5072899;28;20931;-55
2023/01/10 04:01:40;;;;;;;3.43;3.13;;;;;;;;;;5073159;28;20810;-53
2023/01/10 04:04:07;;;;;;;4.60;2.90;;;;;;;;;;5073076;28;20458;-53
2023/01/10 04:06:34;;;;;;;2.97;2.77;;;;;;;;;;5072929;28;20447;-54
2023/01/10 04:09:02;;;;;;;3.80;3.40;;;;;;;;;;5072863;28;20751;-54
2023/01/10 04:11:29;;;;;;;3.50;3.20;;;;;;;;;;5072725;28;20862;-55
2023/01/10 04:13:56;;;;;;;3.73;3.43;;;;;;;;;;5073045;28;20454;-55
2023/01/10 04:16:23;;;;;;;3.50;3.20;;;;;;;;;;5072771;28;20943;-55
2023/01/10 04:18:50;;;;;;;3.43;3.20;;;;;;;;;;5072932;28;20451;-52
2023/01/10 04:21:17;;;;;;;4.30;2.90;;;;;;;;;;5072800;28;20817;-53
2023/01/10 04:23:44;;;;;;;4.83;3.90;;;;;;;;;;5072663;28;20535;-53
2023/01/10 04:26:12;;;;;;;4.70;3.33;;;;;;;;;;5072628;28;20444;-48
2023/01/10 04:28:39;;;;;;;6.27;3.17;;;;;;;;;;5072599;28;20547;-55
2023/01/10 04:31:06;;;;;;;3.70;3.40;;;;;;;;;;5076102;28;20443;-50
2023/01/10 04:33:33;;;;;;;4.00;3.60;;;;;;;;;;5076653;28;20493;-54
2023/01/10 04:36:00;;;;;;;4.20;3.17;;;;;;;;;;5076778;28;20534;-51
2023/01/10 04:38:27;;;;;;;4.00;3.57;;;;;;;;;;5076710;28;20453;-48
2023/01/10 04:40:55;;;;;;;5.20;3.63;;;;;;;;;;5076798;28;20509;-53
2023/01/10 04:43:23;;;;;;;3.90;3.60;;;;;;;;;;5076757;28;20921;-50
2023/01/10 04:45:50;;;;;;;7.70;3.90;;;;;;;;;;5076570;28;20478;-51
2023/01/10 04:48:17;;;;;;;4.50;3.80;;;;;;;;;;5076531;28;20466;-50
2023/01/10 04:50:49;;;;;;;4.17;3.80;;;;;;;;;;5076473;28;20448;-49
2023/01/10 04:53:16;;;;;;;5.20;4.27;;;;;;;;;;5076607;28;20483;-51
2023/01/10 04:55:43;;;;;;;6.10;4.30;;;;;;;;;;5076529;28;20545;-48
2023/01/10 04:58:09;;;;;;;5.40;4.90;;;;;;;;;;5076501;28;20551;-51
2023/01/10 05:00:38;;;;;;;6.53;3.80;;;;;;;;;;5076394;28;20546;-51
2023/01/10 05:03:05;;;;;;;5.47;4.50;;;;;;;;;;5076215;28;20452;-48
2023/01/10 05:05:32;;;;;;;5.47;4.60;;;;;;;;;;5076070;28;20539;-48
2023/01/10 05:07:59;;;;;;;8.13;4.10;;;;;;;;;;5076065;28;20542;-48
2023/01/10 05:10:26;;;;;;;7.00;4.70;;;;;;;;;;5076153;28;20810;-52
2023/01/10 05:12:53;;;;;;;5.87;5.27;;;;;;;;;;5076069;28;20490;-48
2023/01/10 05:15:22;;;;;;;6.50;5.37;;;;;;;;;;5076105;28;20455;-48
2023/01/10 05:17:53;;;;;;;5.27;4.77;;;;;;;;;;5075937;28;20553;-49
2023/01/10 05:20:20;;;;;;;8.17;4.90;;;;;;;;;;5075761;28;21016;-48
2023/01/10 05:22:48;;;;;;;5.33;4.70;;;;;;;;;;5076005;28;20447;-50
2023/01/10 05:25:15;;;;;;;8.37;5.33;;;;;;;;;;5075817;28;20451;-49
2023/01/10 05:27:42;;;;;;;9.07;4.87;;;;;;;;;;5075756;28;20451;-50
2023/01/10 05:30:10;;;;;;;5.33;4.53;;;;;;;;;;5075718;28;20461;-49
2023/01/10 05:32:37;;;;;;;6.90;4.60;;;;;;;;;;5075562;28;20478;-51
2023/01/10 05:35:06;;;;;;;5.27;4.43;;;;;;;;;;5075777;28;20550;-50
2023/01/10 05:37:33;;;;;;;4.20;3.80;;;;;;;;;;5075731;28;20478;-54
2023/01/10 05:40:00;;;;;;;9.80;5.47;;;;;;;;;;5075611;28;20883;-51
2023/01/10 05:42:27;;;;;;;7.10;4.87;;;;;;;;;;5075335;28;20448;-52
2023/01/10 05:44:54;;;;;;;10.03;4.80;;;;;;;;;;5075216;28;20904;-50
2023/01/10 05:47:21;;;;;;;6.90;4.40;;;;;;;;;;5075205;28;20544;-51
2023/01/10 05:49:48;;;;;;;7.00;4.93;;;;;;;;;;5075347;28;20539;-53
2023/01/10 05:52:17;;;;;;;7.00;4.77;;;;;;;;;;5074944;28;21004;-55
2023/01/10 05:54:44;;;;;;;4.70;4.30;;;;;;;;;;5075194;28;20443;-50
2023/01/10 05:57:12;;;;;;;7.83;4.60;;;;;;;;;;5075410;28;20490;-50
2023/01/10 05:59:39;;;;;;;7.57;5.40;;;;;;;;;;5075082;28;20482;-50
2023/01/10 06:02:06;;;;;;;7.77;4.67;;;;;;;;;;5074944;28;20505;-53
2023/01/10 06:04:33;;;;;;;10.00;5.50;;;;;;;;;;5075201;28;20448;-53
2023/01/10 06:07:00;;;;;;;7.67;4.57;;;;;;;;;;5075437;28;20538;-48
2023/01/10 06:09:28;;;;;;;6.33;4.40;;;;;;;;;;5075029;28;20470;-50
2023/01/10 06:11:55;;;;;;;4.43;3.87;;;;;;;;;;5074785;28;20551;-52
2023/01/10 06:14:22;;;;;;;5.90;4.00;;;;;;;;;;5074686;28;20454;-54
2023/01/10 06:16:49;;;;;;;10.30;5.00;;;;;;;;;;5075007;28;20451;-55
2023/01/10 06:19:16;;;;;;;6.03;5.43;;;;;;;;;;5074752;28;20451;-56
2023/01/10 06:21:43;;;;;;;6.70;4.50;;;;;;;;;;5074781;28;20535;-55
2023/01/10 06:24:10;;;;;;;7.90;4.90;;;;;;;;;;5074639;28;20547;-50
2023/01/10 06:26:38;;;;;;;5.83;4.80;;;;;;;;;;5074439;28;20509;-53
2023/01/10 06:29:05;;;;;;;5.40;4.90;;;;;;;;;;5074560;28;20452;-52
2023/01/10 06:31:32;;;;;;;7.57;5.23;;;;;;;;;;5074569;28;20807;-54
2023/01/10 06:33:59;;;;;;;11.10;5.00;;;;;;;;;;5074518;28;20490;-55
2023/01/10 06:36:26;;;;;;;8.40;5.30;;;;;;;;;;5074337;28;20534;-55
2023/01/10 06:38:53;;;;;;;6.67;4.57;;;;;;;;;;5074291;28;20451;-50
2023/01/10 06:41:19;;;;;;;12.30;5.53;;;;;;;;;;5074102;28;20448;-54
2023/01/10 06:43:48;;;;;;;6.80;4.87;;;;;;;;;;5074204;28;20823;-54
2023/01/10 06:46:16;;;;;;;9.63;6.00;;;;;;;;;;5074189;28;20448;-54
2023/01/10 06:48:44;;;;;;;11.33;5.00;;;;;;;;;;5074045;28;20458;-55
2023/01/10 06:51:11;;;;;;;6.27;5.00;;;;;;;;;;5074094;28;20448;-56
2023/01/10 06:53:38;;;;;;;11.33;7.03;;;;;;;;;;5073440;28;20483;-54
2023/01/10 06:56:05;;;;;;;7.30;5.17;;;;;;;;;;5073867;28;20454;-54
2023/01/10 06:58:33;;;;;;;8.23;5.20;;;;;;;;;;5074076;28;20458;-53
2023/01/10 07:01:01;;;;;;;8.27;5.27;;;;;;;;;;5073861;28;20451;-54
2023/01/10 07:03:28;;;;;;;12.17;5.50;;;;;;;;;;5073574;28;20459;-56
2023/01/10 07:05:55;;;;;;;8.87;5.40;;;;;;;;;;5073511;28;20451;-53
2023/01/10 07:08:22;;;;;;;8.70;5.23;;;;;;;;;;5073536;28;20545;-55
2023/01/10 07:10:49;;;;;;;7.40;4.97;;;;;;;;;;5073736;28;20450;-55
2023/01/10 07:13:16;;;;;;;7.60;4.93;;;;;;;;;;5073556;28;20480;-55
2023/01/10 07:15:43;;;;;;;8.07;4.67;;;;;;;;;;5073754;28;20539;-54
2023/01/10 07:18:11;;;;;;;10.83;5.00;;;;;;;;;;5073474;28;20448;-55
2023/01/10 07:20:38;;;;;;;8.20;4.83;;;;;;;;;;5073476;28;20442;-53
2023/01/10 07:23:05;;;;;;;9.37;5.10;;;;;;;;;;5073234;28;20448;-56
2023/01/10 07:25:32;;;;;;;7.97;4.77;;;;;;;;;;5073396;28;20454;-56
2023/01/10 07:27:59;;;;;;;9.33;5.53;;;;;;;;;;5073476;28;21002;-55
2023/01/10 07:30:26;;;;;;;9.70;5.50;;;;;;;;;;5073359;28;20854;-52
2023/01/10 07:32:54;;;;;;;7.03;4.97;;;;;;;;;;5073185;28;20486;-56
2023/01/10 07:35:22;;;;;;;13.23;5.80;;;;;;;;;;5073252;28;20448;-53
2023/01/10 07:37:49;;;;;;;8.03;4.93;;;;;;;;;;5073007;28;20459;-54
2023/01/10 07:40:16;;;;;;;9.40;5.00;;;;;;;;;;5073270;28;21045;-56
2023/01/10 07:42:43;;;;;;;10.67;5.70;;;;;;;;;;5073041;28;20451;-55
2023/01/10 07:45:11;;;;;;;7.13;4.73;;;;;;;;;;5072958;28;20478;-55
2023/01/10 07:47:38;;;;;;;11.70;5.10;;;;;;;;;;5073046;28;20489;-54
2023/01/10 07:50:05;;;;;;;9.97;4.50;;;;;;;;;;5072793;28;20454;-56
2023/01/10 07:52:34;;;;;;;7.83;4.77;;;;;;;;;;5073005;28;20458;-55
2023/01/10 07:55:01;;;;;;;10.13;5.43;;;;;;;;;;5073055;28;20542;-54
2023/01/10 07:57:28;;;;;;;11.37;6.60;;;;;;;;;;5073072;28;20539;-54
2023/01/10 07:59:55;;;;;;;6.60;5.40;;;;;;;;;;5072970;28;20456;-55
2023/01/10 08:02:22;;;;;;;13.47;5.70;;;;;;;;;;5072914;28;20447;-55
2023/01/10 08:04:49;;;;;;;8.57;5.87;;;;;;;;;;5071888;28;20542;-54
2023/01/10 08:07:16;;;;;;;8.33;6.07;;;;;;;;;;5072940;28;20448;-57
2023/01/10 08:09:44;;;;;;;6.53;5.63;;;;;;;;;;5072815;28;20538;-51
2023/01/10 08:12:11;;;;;;;10.97;5.40;;;;;;;;;;5072715;28;20454;-54
2023/01/10 08:14:38;;;;;;;10.37;5.80;;;;;;;;;;5072580;28;20486;-54
2023/01/10 08:17:05;;;;;;;8.60;5.73;;;;;;;;;;5072579;28;20459;-55
2023/01/10 08:19:32;;;;;;;7.87;5.20;;;;;;;;;;5072837;28;20547;-56
2023/01/10 08:21:59;;;;;;;7.80;5.43;;;;;;;;;;5072840;28;20744;-56
2023/01/10 08:24:26;;;;;;;9.53;5.77;;;;;;;;;;5072557;28;20973;-53
2023/01/10 08:26:54;;;;;;;8.43;4.93;;;;;;;;;;5072674;28;20447;-55
2023/01/10 08:29:21;;;;;;;10.83;5.90;;;;;;;;;;5072437;28;20440;-55
2023/01/10 08:31:48;;;;;;;9.40;6.10;;;;;;;;;;5072429;28;20448;-58
2023/01/10 08:34:15;;;;;;;10.90;6.40;;;;;;;;;;5072433;28;20484;-61
2023/01/10 08:36:42;;;;;;;8.97;5.73;;;;;;;;;;5071879;28;20459;-62
2023/01/10 08:39:09;;;;;;;11.80;6.80;;;;;;;;;;5072476;28;20544;-64
2023/01/10 08:41:38;;;;;;;11.00;6.27;;;;;;;;;;5072398;28;20479;-61
2023/01/10 08:44:06;;;;;;;8.80;7.00;;;;;;;;;;5072111;28;20486;-64
2023/01/10 08:46:33;;;;;;;11.90;7.00;;;;;;;;;;5072355;28;20454;-67
2023/01/10 08:49:00;;;;;;;10.17;6.40;;;;;;;;;;5072417;28;20452;-59
2023/01/10 08:51:27;;;;;;;12.90;6.57;;;;;;;;;;5072435;28;20814;-59
2023/01/10 08:53:54;;;;;;;11.40;5.90;;;;;;;;;;5072310;28;20961;-62
2023/01/10 08:56:21;;;;;;;6.87;5.63;;;;;;;;;;5072392;28;20450;-60
2023/01/10 08:58:48;;;;;;;10.90;5.60;;;;;;;;;;5072220;28;20541;-63
2023/01/10 09:01:16;;;;;;;8.40;6.10;;;;;;;;;;5072400;28;20811;-61
2023/01/10 09:03:43;;;;;;;11.10;6.10;;;;;;;;;;5072342;28;20542;-62
2023/01/10 09:06:10;;;;;;;9.83;6.20;;;;;;;;;;5072332;28;20448;-61
2023/01/10 09:08:37;;;;;;;9.20;5.33;;;;;;;;;;5072183;28;20543;-65
2023/01/10 09:11:05;;;;;;;9.53;6.20;;;;;;;;;;5072188;28;20466;-59
2023/01/10 09:13:33;;;;;;;8.60;6.07;;;;;;;;;;5071971;28;20482;-59
2023/01/10 09:16:00;;;;;;;7.40;5.07;;;;;;;;;;5073652;28;20537;-59
2023/01/10 09:18:28;;;;;;;10.53;6.00;;;;;;;;;;5076019;28;20451;-59
2023/01/10 09:20:55;;;;;;;10.23;6.27;;;;;;;;;;5075936;28;20451;-59
2023/01/10 09:23:23;;;;;;;9.67;6.20;;;;;;;;;;5075631;28;20890;-58
2023/01/10 09:25:52;;;;;;;8.90;6.70;;;;;;;;;;5075622;28;20456;-60
2023/01/10 09:28:19;;;;;;;11.43;6.40;;;;;;;;;;5075842;28;20447;-59
2023/01/10 09:30:46;;;;;;;10.63;6.20;;;;;;;;;;5075734;28;20443;-61
2023/01/10 09:33:14;;;;;;;10.60;5.90;;;;;;;;;;5075377;28;20531;-61
2023/01/10 09:35:43;;;;;;;10.30;7.03;;;;;;;;;;5075402;28;20451;-61
2023/01/10 09:38:13;;;;;;;13.73;5.90;;;;;;;;;;5075289;28;20444;-64
2023/01/10 09:40:47;;;;;;;9.20;6.33;;;;;;;;;;5075345;28;20452;-64
2023/01/10 09:43:17;;;;;;;11.20;5.83;;;;;;;;;;5075584;28;20876;-65
2023/01/10 09:45:50;;;;;;;8.03;5.00;;;;;;;;;;5075140;28;20595;-64
2023/01/10 09:48:21;;;;;;;15.47;6.73;;;;;;;;;;5075236;28;20537;-65
2023/01/10 09:50:59;;;;;;;11.23;5.73;;;;;;;;;;5075048;28;21017;-60
2023/01/10 09:53:28;;;;;;;8.30;5.70;;;;;;;;;;5075144;28;20481;-57
2023/01/10 09:55:56;;;;;;;9.40;5.30;;;;;;;;;;5075453;28;20489;-57
2023/01/10 09:58:26;;;;;;;8.37;5.20;;;;;;;;;;5074959;28;20543;-60
2023/01/10 10:00:55;;;;;;;9.55;5.70;;;;;;;;;;5074314;28;20545;-55
2023/01/10 10:03:25;;;;;;;5.20;4.63;;;;;;;;;;5074770;28;20192;-63
2023/01/10 10:05:53;;;;;;;9.15;5.40;;;;;;;;;;5073883;28;20454;-66
2023/01/10 10:08:20;;;;;;;10.15;5.43;;;;;;;;;;5073784;28;20496;-66
2023/01/10 10:10:55;;;;;;;5.23;4.73;;;;;;;;;;5074536;28;20597;-67
2023/01/10 10:13:27;;;;;;;6.80;4.60;;;;;;;;;;5074506;28;20880;-66
2023/01/10 10:15:58;;;;;;;8.38;5.70;;;;;;;;;;5073409;28;20912;-67
2023/01/10 10:18:28;;;;;;;10.13;5.60;;;;;;;;;;5073704;28;20936;-69
2023/01/10 10:21:05;;;;;;;9.50;5.85;;;;;;;;;;5073592;28;20511;-68
2023/01/10 10:23:41;;;;;;;8.05;5.60;;;;;;;;;;5073672;28;20940;-68
2023/01/10 10:26:13;;;;;;;7.93;4.95;;;;;;;;;;5073406;28;20450;-68
2023/01/10 10:28:50;;;;;;;12.00;5.27;;;;;;;;;;5073811;28;20229;-68
2023/01/10 10:31:22;;;;;;;10.52;5.47;;;;;;;;;;5073433;28;20961;-67
2023/01/10 10:33:55;;;;;;;9.87;4.90;;;;;;;;;;5074141;28;20213;-67
2023/01/10 10:36:25;;;;;;;10.15;5.28;;;;;;;;;;5073822;28;20545;-67
2023/01/10 10:38:53;;;;;;;10.38;5.65;;;;;;;;;;5073085;28;20528;-69
2023/01/10 10:41:28;;;;;;;12.65;5.47;;;;;;;;;;5074210;28;20446;-69
2023/01/10 10:44:02;;;;;;;12.98;7.30;;;;;;;;;;5073095;28;20582;-60
2023/01/10 10:46:29;;;;;;;9.33;4.77;;;;;;;;;;5074187;28;20455;-61
2023/01/10 10:48:58;;;;;;;7.63;4.37;;;;;;;;;;5074098;28;20481;-60
2023/01/10 10:51:28;;;;;;;6.57;4.40;;;;;;;;;;5073899;28;20547;-61
2023/01/10 10:53:55;;;;;;;5.73;3.53;;;;;;;;;;5074203;28;20807;-62
2023/01/10 10:56:23;;;;;;;7.97;4.70;;;;;;;;;;5073919;28;21014;-62
2023/01/10 10:58:52;;;;;;;11.97;5.93;;;;;;;;;;5073851;28;20807;-64
2023/01/10 11:01:19;;;;;;;7.10;5.30;;;;;;;;;;5073930;28;20939;-61
2023/01/10 11:03:48;;;;;;;7.57;6.10;;;;;;;;;;5073667;28;20451;-62
2023/01/10 11:06:16;;;;;;;7.77;5.50;;;;;;;;;;5073684;28;20830;-62
2023/01/10 11:08:47;;;;;;;6.20;4.73;;;;;;;;;;5073959;28;20489;-62
2023/01/10 11:11:18;;;;;;;10.50;4.50;;;;;;;;;;5073561;28;20501;-60
2023/01/10 11:13:47;;;;;;;7.63;4.47;;;;;;;;;;5073589;28;20531;-53
2023/01/10 11:16:24;;;;;;;5.87;3.97;;;;;;;;;;5073496;28;20542;-68
2023/01/10 11:19:09;;;;;;;10.50;4.60;;;;;;;;;;5073650;28;20983;-67
2023/01/10 11:21:36;;;;;;;8.00;4.73;;;;;;;;;;5073554;28;20501;-65
2023/01/10 11:24:05;;;;;;;13.90;4.03;;;;;;;;;;5073334;28;20454;-61
2023/01/10 11:26:38;;;;;;;10.50;4.37;;;;;;;;;;5073374;28;20444;-59
2023/01/10 11:29:07;;;;;;;5.70;4.20;;;;;;;;;;5073488;28;20535;-59
2023/01/10 11:31:35;;;;;;;9.30;4.63;;;;;;;;;;5073318;28;20443;-59
2023/01/10 11:34:04;;;;;;;7.47;4.70;;;;;;;;;;5073640;28;20566;-61
2023/01/10 11:36:51;;;;;;;5.97;3.70;;;;;;;;;;5073133;28;20448;-65
2023/01/10 11:39:19;;;;;;;5.37;4.10;;;;;;;;;;5072999;28;20451;-63
2023/01/10 11:41:48;;;;;;;4.37;3.63;;;;;;;;;;5073025;28;20547;-63
2023/01/10 11:44:21;;;;;;;6.40;3.43;;;;;;;;;;5073190;28;20498;-61
2023/01/10 11:46:49;;;;;;;8.87;4.00;;;;;;;;;;5073164;28;20815;-64
2023/01/10 11:49:19;;;;;;;10.63;4.10;;;;;;;;;;5073203;28;20878;-67
2023/01/10 11:51:47;;;;;;;8.30;3.70;;;;;;;;;;5072878;28;20448;-66
2023/01/10 11:54:18;;;;;;;10.83;4.73;;;;;;;;;;5073124;28;20479;-70
2023/01/10 11:56:51;;;;;;;10.57;4.50;;;;;;;;;;5073073;28;20502;-68
2023/01/10 11:59:19;;;;;;;6.63;4.53;;;;;;;;;;5073121;28;20867;-63
2023/01/10 12:01:48;;;;;;;13.60;3.97;;;;;;;;;;5072936;28;20547;-60
2023/01/10 12:04:15;;;;;;;7.18;3.78;;;;;;;;;;5072380;28;20446;-63
2023/01/10 12:06:44;;;;;;;9.40;3.70;;;;;;;;;;5073088;28;20191;-62
2023/01/10 12:09:32;;;;;;;4.43;2.93;;;;;;;;;;5072612;28;20474;-58
2023/01/10 12:12:03;;;;;;;7.87;3.57;;;;;;;;;;5072915;28;20445;-64
2023/01/10 12:14:30;;;;;;;5.20;3.70;;;;;;;;;;5072742;28;20479;-62
2023/01/10 12:16:59;;;;;;;3.97;2.90;;;;;;;;;;5072737;28;20566;-65
2023/01/10 12:19:27;;;;;;;9.43;3.10;;;;;;;;;;5072903;28;20535;-64
2023/01/10 12:21:55;;;;;;;7.40;3.23;;;;;;;;;;5072889;28;20459;-63
2023/01/10 12:24:23;;;;;;;4.77;2.90;;;;;;;;;;5072717;28;20542;-63
2023/01/10 12:26:52;;;;;;;11.83;3.93;;;;;;;;;;5072677;28;20811;-61
2023/01/10 12:29:23;;;;;;;7.30;4.30;;;;;;;;;;5072585;28;20452;-65
2023/01/10 12:31:51;;;;;;;9.70;3.40;;;;;;;;;;5072466;28;20458;-64
2023/01/10 12:34:19;;;;;;;6.43;3.10;;;;;;;;;;5072477;28;20512;-65
2023/01/10 12:36:54;;;;;;;6.73;2.60;;;;;;;;;;5072377;28;20468;-63
2023/01/10 12:39:22;;;;;;;6.90;3.03;;;;;;;;;;5072266;28;20494;-59
2023/01/10 12:44:41;;;;;;;7.83;2.57;;;;;;;;;;5072407;28;20475;-59
2023/01/10 12:47:14;;;;;;;6.90;3.00;;;;;;;;;;5072607;28;20447;-60
2023/01/10 12:49:44;;;;;;;7.57;2.40;;;;;;;;;;5072591;28;20547;-61
2023/01/10 12:52:14;;;;;;;9.57;3.47;;;;;;;;;;5075719;28;20447;-59
2023/01/10 12:54:41;;;;;;;5.43;2.23;;;;;;;;;;5076344;28;20550;-60
2023/01/10 12:57:16;;;;;;;5.63;2.80;;;;;;;;;;5076466;28;20448;-60
2023/01/10 12:59:45;;;;;;;6.97;2.83;;;;;;;;;;5076717;28;20453;-60
2023/01/10 13:02:16;;;;;;;6.03;2.43;;;;;;;;;;5076357;28;20920;-64
2023/01/10 13:04:47;;;;;;;6.90;2.30;;;;;;;;;;5076145;28;20550;-61
2023/01/10 13:07:14;;;;;;;7.33;2.57;;;;;;;;;;5076023;28;21016;-59
2023/01/10 13:09:42;;;;;;;8.70;2.67;;;;;;;;;;5076241;28;20448;-68
2023/01/10 13:12:13;;;;;;;5.37;2.93;;;;;;;;;;5076058;28;20858;-53
2023/01/10 13:14:46;;;;;;;10.90;3.47;;;;;;;;;;5075525;28;20973;-63
2023/01/10 13:17:26;;;;;;;6.80;3.33;;;;;;;;;;5075772;28;20482;-64
2023/01/10 13:20:11;;;;;;;5.37;2.60;;;;;;;;;;5075707;28;20983;-63
2023/01/10 13:22:38;;;;;;;8.13;3.27;;;;;;;;;;5075822;28;20450;-62
2023/01/10 13:25:06;;;;;;;6.10;2.87;;;;;;;;;;5075847;28;20445;-61
2023/01/10 13:27:34;;;;;;;8.87;3.07;;;;;;;;;;5075658;28;20612;-61
2023/01/10 13:30:01;;;;;;;4.63;2.23;;;;;;;;;;5075690;28;20476;-66
2023/01/10 13:32:31;;;;;;;6.87;2.67;;;;;;;;;;5075524;28;20574;-65
2023/01/10 13:35:09;;;;;;;6.73;2.20;;;;;;;;;;5075435;28;20838;-61
2023/01/10 13:37:38;;;;;;;6.97;2.23;;;;;;;;;;5075447;28;20454;-56
2023/01/10 13:40:05;;;;;;;11.10;2.97;;;;;;;;;;5075425;28;20546;-60
2023/01/10 13:45:23;;;;;;;8.00;2.40;;;;;;;;;;5075193;28;20859;-58
2023/01/10 13:47:59;;;;;;;6.63;4.37;;;;;;;;;;5075193;28;20986;-60
2023/01/10 13:50:50;;;;;;;13.80;2.53;;;;;;;;;;5075292;28;20454;-59
2023/01/10 13:53:35;;;;;;;7.00;2.27;;;;;;;;;;5059888;28;20587;-62
2023/01/10 13:56:02;;;;;;;8.50;2.40;;;;;;;;;;5075042;28;20486;-58
2023/01/10 14:04:18;;;;;;;9.23;2.50;;;;;;;;;;5030292;28;20842;-59
2023/01/10 14:06:45;;;;;;;7.93;2.30;;;;;;;;;;5074651;28;20960;-59
2023/01/10 14:09:30;;;;;;;5.07;1.57;;;;;;;;;;5074391;28;21046;-59
2023/01/10 14:11:58;;;;;;;2.30;2.07;;;;;;;;;;5075078;28;20444;-59
2023/01/10 14:14:26;;;;;;;8.67;4.50;;;;;;;;;;5074840;28;20541;-58
2023/01/10 14:16:55;;;;;;;10.80;6.13;;;;;;;;;;5074774;28;20448;-59
2023/01/10 14:19:27;;;;;;;8.17;4.47;;;;;;;;;;5074830;28;20455;-59
2023/01/10 14:21:55;;;;;;;5.63;2.83;;;;;;;;;;5074629;28;20456;-59
2023/01/10 14:24:26;;;;;;;6.53;2.60;;;;;;;;;;5074613;28;20810;-58
2023/01/10 14:26:54;;;;;;;7.57;2.70;;;;;;;;;;5074683;28;20448;-59
2023/01/10 14:29:21;;;;;;;8.00;2.77;;;;;;;;;;5074556;28;20961;-58
2023/01/10 14:31:51;;;;;;;10.17;3.00;;;;;;;;;;5074573;28;20455;-58
2023/01/10 14:34:21;;;;;;;3.40;1.93;;;;;;;;;;5074439;28;20452;-59
2023/01/10 14:36:54;;;;;;;7.40;2.97;;;;;;;;;;5074432;28;20483;-58
2023/01/10 14:39:21;;;;;;;8.30;2.97;;;;;;;;;;5074309;28;20955;-58
2023/01/10 14:41:50;;;;;;;7.17;3.00;;;;;;;;;;5074410;28;21040;-58
2023/01/10 14:44:18;;;;;;;5.97;3.30;;;;;;;;;;5074098;28;20577;-59
2023/01/10 14:46:47;;;;;;;7.13;3.60;;;;;;;;;;5074313;28;20451;-58
2023/01/10 14:49:20;;;;;;;9.53;2.57;;;;;;;;;;5074323;28;20498;-60
2023/01/10 14:51:49;;;;;;;7.73;2.50;;;;;;;;;;5074381;28;20456;-58
2023/01/10 14:54:18;;;;;;;7.27;2.37;;;;;;;;;;5074162;28;20448;-58
2023/01/10 14:56:46;;;;;;;4.83;2.60;;;;;;;;;;5074012;28;20515;-59
2023/01/10 14:59:17;;;;;;;5.27;2.13;;;;;;;;;;5074025;28;20448;-58
2023/01/10 15:01:44;;;;;;;8.03;2.40;;;;;;;;;;5074223;28;20505;-59
2023/01/10 15:04:14;;;;;;;4.20;3.43;;;;;;;;;;5074031;28;20505;-58
2023/01/10 15:06:51;;;;;;;8.10;3.37;;;;;;;;;;5073696;28;20483;-58
2023/01/10 15:09:19;;;;;;;12.57;4.07;;;;;;;;;;5073762;28;20522;-59